Terminal Aerodrome Forecast
Issued by NWS Louisville, KY

Home | Current Version | Previous Version | Text Only | Print | Product List | Glossary On
Versions: 1 2 3 4 5 6 7 8 9 10 11 12 13 14 15
000
FTUS43 KLMK 220758 AAA
TAFBWG
TAF AMD
KBWG 220758Z 2208/2306 VRB03KT 2SM BR FEW002
      TEMPO 2208/2210 1/2SM FG VV002
     FM221000 VRB03KT 2SM BR FEW002
      TEMPO 2210/2213 1/2SM FG VV002
     FM221400 34008KT P6SM SKC=

USA.gov is the U.S. government's official web portal to all federal, state and local government web resources and services.